Time;durP1;ratioP1;P1;durP2;ratioP2;P2;SDS_P1;SDS_P2;PMS_P1;PMS_P2;Temp;Humidity;BMP_temperature;BMP_pressure;BME280_temperature;BME280_humidity;BME280_pressure;Samples;Min_cycle;Max_cycle;Signal;HPM_P1;HPM_P2
2023/06/06 00:01:40;;;;;;;6.38;4.00;;;19.40;99.90;;;;;;5112672;28;20043;-73
2023/06/06 00:04:06;;;;;;;9.02;3.75;;;19.40;99.90;;;;;;5094415;28;20024;-72
2023/06/06 00:06:35;;;;;;;5.13;3.72;;;19.50;99.90;;;;;;5112832;28;20022;-72
2023/06/06 00:09:02;;;;;;;5.60;3.85;;;19.40;99.90;;;;;;5112821;28;20035;-72
2023/06/06 00:11:28;;;;;;;5.90;3.42;;;19.40;99.90;;;;;;5113106;28;20450;-72
2023/06/06 00:13:56;;;;;;;7.07;3.58;;;19.40;99.90;;;;;;5112865;28;20103;-72
2023/06/06 00:16:23;;;;;;;6.05;3.83;;;19.40;99.90;;;;;;5113046;28;20016;-72
2023/06/06 00:18:52;;;;;;;5.85;3.30;;;19.40;99.90;;;;;;5116373;28;20028;-72
2023/06/06 00:21:19;;;;;;;3.92;3.50;;;19.40;99.90;;;;;;5116670;28;20028;-72
2023/06/06 00:23:47;;;;;;;5.97;3.90;;;19.40;99.90;;;;;;5116675;28;20027;-72
2023/06/06 00:26:13;;;;;;;4.53;3.67;;;19.40;99.90;;;;;;5116580;28;20479;-73
2023/06/06 00:28:39;;;;;;;7.40;4.00;;;19.40;99.90;;;;;;5116575;28;20027;-73
2023/06/06 00:31:04;;;;;;;6.38;3.63;;;19.40;99.90;;;;;;5116636;28;20376;-73
2023/06/06 00:33:30;;;;;;;4.55;3.80;;;19.40;99.90;;;;;;5116588;28;20028;-72
2023/06/06 00:35:56;;;;;;;5.13;4.05;;;19.40;99.90;;;;;;5116337;28;20048;-73
2023/06/06 00:38:21;;;;;;;6.65;4.15;;;19.40;99.90;;;;;;5116325;28;20039;-73
2023/06/06 00:40:47;;;;;;;4.90;3.85;;;19.40;99.90;;;;;;5116225;28;20463;-73
2023/06/06 00:43:13;;;;;;;8.13;3.83;;;19.40;99.90;;;;;;5116069;28;20497;-72
2023/06/06 00:45:38;;;;;;;6.20;3.60;;;19.40;99.90;;;;;;5113866;28;20019;-72
2023/06/06 00:48:05;;;;;;;4.78;3.90;;;19.40;99.90;;;;;;5113653;28;20527;-72
2023/06/06 00:50:32;;;;;;;6.35;4.25;;;19.40;99.90;;;;;;5114505;28;20055;-72
2023/06/06 00:52:58;;;;;;;4.68;3.60;;;19.40;99.90;;;;;;5116157;28;20141;-72
2023/06/06 00:55:24;;;;;;;5.97;3.80;;;19.40;99.90;;;;;;5116246;28;20023;-72
2023/06/06 00:57:51;;;;;;;7.20;4.10;;;19.40;99.90;;;;;;5114820;28;20037;-73
2023/06/06 01:00:17;;;;;;;11.82;4.07;;;19.30;99.90;;;;;;5113252;28;20032;-73
2023/06/06 01:02:43;;;;;;;5.20;3.40;;;19.40;99.90;;;;;;5113119;28;20106;-73
2023/06/06 01:05:10;;;;;;;5.20;3.88;;;19.30;99.90;;;;;;5114568;28;20016;-72
2023/06/06 01:07:36;;;;;;;5.63;3.58;;;19.30;99.90;;;;;;5115794;28;20020;-72
2023/06/06 01:10:07;;;;;;;3.80;3.15;;;19.30;99.90;;;;;;5115618;28;20035;-72
2023/06/06 01:12:47;;;;;;;4.40;3.60;;;19.30;99.90;;;;;;5115452;28;20019;-71
2023/06/06 01:15:43;;;;;;;9.80;3.30;;;19.40;99.90;;;;;;5115406;28;20483;-73
2023/06/06 01:18:12;;;;;;;4.25;3.30;;;19.30;99.90;;;;;;5115794;28;20026;-72
2023/06/06 01:20:41;;;;;;;5.18;3.42;;;19.30;99.90;;;;;;5115458;28;20103;-72
2023/06/06 01:23:10;;;;;;;6.18;3.65;;;19.30;99.90;;;;;;5115243;28;20032;-71
2023/06/06 01:25:37;;;;;;;5.80;3.75;;;19.30;99.90;;;;;;5115555;28;20395;-72
2023/06/06 01:28:04;;;;;;;8.15;3.55;;;19.30;99.90;;;;;;5114945;28;20035;-71
2023/06/06 01:30:31;;;;;;;5.57;3.55;;;19.30;99.90;;;;;;5115632;28;20115;-72
2023/06/06 01:33:18;;;;;;;7.85;4.22;;;19.30;99.90;;;;;;5115319;28;20085;-71
2023/06/06 01:36:08;;;;;;;4.00;3.55;;;19.30;99.90;;;;;;5114968;28;20458;-70
2023/06/06 01:38:47;;;;;;;4.75;3.63;;;19.30;99.90;;;;;;5114870;28;20031;-71
2023/06/06 01:41:18;;;;;;;4.97;3.60;;;19.30;99.90;;;;;;5115128;28;20045;-72
2023/06/06 01:43:47;;;;;;;12.83;4.40;;;19.30;99.90;;;;;;5115340;28;20477;-72
2023/06/06 01:46:13;;;;;;;7.07;3.70;;;19.30;99.90;;;;;;5115118;28;20430;-71
2023/06/06 01:48:40;;;;;;;5.18;3.83;;;19.30;99.90;;;;;;5114639;28;20053;-72
2023/06/06 01:51:06;;;;;;;5.43;3.80;;;19.20;99.90;;;;;;5114952;28;20020;-72
2023/06/06 01:53:32;;;;;;;7.40;3.88;;;19.20;99.90;;;;;;5114991;28;20542;-72
2023/06/06 01:55:58;;;;;;;6.03;3.88;;;19.20;99.90;;;;;;5114961;28;20032;-72
2023/06/06 01:58:24;;;;;;;5.90;3.75;;;19.30;99.90;;;;;;5114732;28;20118;-72
2023/06/06 02:00:50;;;;;;;6.55;4.20;;;19.20;99.90;;;;;;5114787;28;20106;-72
2023/06/06 02:03:15;;;;;;;8.25;4.82;;;19.20;99.90;;;;;;5114811;28;20377;-72
2023/06/06 02:05:41;;;;;;;11.48;4.30;;;19.20;99.90;;;;;;5115005;28;20119;-72
2023/06/06 02:08:07;;;;;;;9.88;4.13;;;19.30;99.90;;;;;;5114254;28;20027;-72
2023/06/06 02:10:33;;;;;;;16.60;5.00;;;19.20;99.90;;;;;;5132027;27;20490;-72
2023/06/06 02:12:58;;;;;;;8.85;4.20;;;19.20;99.90;;;;;;5134903;27;20049;-72
2023/06/06 02:15:29;;;;;;;5.15;4.22;;;19.20;99.90;;;;;;5135041;27;20023;-72
2023/06/06 02:17:55;;;;;;;4.95;3.25;;;19.10;99.90;;;;;;5134841;27;20535;-72
2023/06/06 02:20:21;;;;;;;14.07;3.83;;;19.10;99.90;;;;;;5135274;27;20035;-72
2023/06/06 02:22:46;;;;;;;9.98;3.40;;;19.10;99.90;;;;;;5135135;27;20098;-72
2023/06/06 02:25:13;;;;;;;6.85;3.50;;;19.10;99.90;;;;;;5116837;27;20031;-72
2023/06/06 02:27:39;;;;;;;6.38;3.40;;;19.10;99.90;;;;;;5134619;27;20022;-72
2023/06/06 02:30:08;;;;;;;12.07;3.55;;;19.10;99.90;;;;;;5134775;27;20035;-71
2023/06/06 02:32:34;;;;;;;4.82;3.28;;;19.10;99.90;;;;;;5134846;27;20019;-72
2023/06/06 02:35:01;;;;;;;10.75;3.50;;;19.10;99.90;;;;;;5134734;27;20159;-72
2023/06/06 02:37:30;;;;;;;3.58;2.92;;;19.10;99.90;;;;;;5134399;27;20051;-72
2023/06/06 02:39:55;;;;;;;3.28;2.90;;;19.10;99.90;;;;;;5133842;27;20025;-72
2023/06/06 02:42:21;;;;;;;9.25;3.45;;;19.10;99.90;;;;;;5134623;27;20093;-72
2023/06/06 02:44:47;;;;;;;7.20;3.33;;;19.10;99.90;;;;;;5134472;27;20061;-72
2023/06/06 02:47:12;;;;;;;11.18;3.60;;;19.10;99.90;;;;;;5134508;27;20565;-71
2023/06/06 02:49:39;;;;;;;7.07;3.53;;;19.10;99.90;;;;;;5134598;27;20041;-72
2023/06/06 02:52:05;;;;;;;9.60;4.10;;;19.10;99.90;;;;;;5134524;27;20047;-72
2023/06/06 02:54:31;;;;;;;8.25;3.65;;;19.10;99.90;;;;;;5134314;27;20066;-72
2023/06/06 02:56:57;;;;;;;10.30;3.67;;;19.10;99.90;;;;;;5134430;27;20054;-72
2023/06/06 02:59:22;;;;;;;6.13;3.30;;;19.10;99.90;;;;;;5134441;27;20027;-73
2023/06/06 03:01:48;;;;;;;5.70;3.33;;;19.10;99.90;;;;;;5134193;27;20030;-72
2023/06/06 03:04:14;;;;;;;11.35;3.50;;;19.10;99.90;;;;;;5134088;27;20019;-71
2023/06/06 03:06:41;;;;;;;8.25;3.40;;;19.00;99.90;;;;;;5134160;27;20502;-71
2023/06/06 03:09:08;;;;;;;7.93;3.10;;;19.10;99.90;;;;;;5134103;27;20035;-71
2023/06/06 03:11:35;;;;;;;6.30;2.83;;;19.00;99.90;;;;;;5134236;27;20019;-72
2023/06/06 03:14:00;;;;;;;7.63;2.92;;;19.00;99.90;;;;;;5134086;27;20127;-71
2023/06/06 03:16:26;;;;;;;6.28;2.78;;;19.00;99.90;;;;;;5134176;27;20491;-72
2023/06/06 03:18:52;;;;;;;3.65;2.53;;;19.00;99.90;;;;;;5115723;27;20539;-71
2023/06/06 03:21:19;;;;;;;5.72;2.80;;;19.00;99.90;;;;;;5133778;27;20098;-72
2023/06/06 03:23:44;;;;;;;3.38;2.33;;;19.00;99.90;;;;;;5133986;27;20076;-71
2023/06/06 03:26:10;;;;;;;3.95;2.40;;;18.90;99.90;;;;;;5133982;27;20425;-72
2023/06/06 03:28:36;;;;;;;8.32;3.10;;;19.00;99.90;;;;;;5133808;27;20115;-72
2023/06/06 03:31:05;;;;;;;6.80;2.30;;;19.00;99.90;;;;;;5133879;28;20026;-71
2023/06/06 03:33:32;;;;;;;3.70;2.10;;;18.90;99.90;;;;;;5133981;28;20421;-71
2023/06/06 03:35:58;;;;;;;2.95;2.22;;;18.90;99.90;;;;;;5133535;28;20042;-72
2023/06/06 03:38:24;;;;;;;3.75;2.10;;;18.90;99.90;;;;;;5133613;28;20023;-71
2023/06/06 03:40:49;;;;;;;4.90;2.35;;;18.90;99.90;;;;;;5133774;28;20035;-72
2023/06/06 03:43:15;;;;;;;5.07;2.50;;;18.90;99.90;;;;;;5133797;28;20387;-72
2023/06/06 03:45:41;;;;;;;5.03;2.60;;;18.90;99.90;;;;;;5115327;28;20031;-72
2023/06/06 03:48:09;;;;;;;3.47;3.03;;;18.90;99.90;;;;;;5133891;28;20027;-72
2023/06/06 03:50:35;;;;;;;11.90;3.85;;;18.90;99.90;;;;;;5133833;27;20035;-71
2023/06/06 03:53:01;;;;;;;4.82;3.08;;;18.90;99.90;;;;;;5137647;27;20099;-72
2023/06/06 03:55:28;;;;;;;5.63;2.42;;;18.90;99.90;;;;;;5137895;27;20495;-72
2023/06/06 03:57:54;;;;;;;6.97;2.92;;;18.90;99.90;;;;;;5137646;27;20153;-72
2023/06/06 04:00:20;;;;;;;6.20;3.40;;;18.90;99.90;;;;;;5137730;27;20046;-72
2023/06/06 04:02:49;;;;;;;3.70;3.22;;;18.90;99.90;;;;;;5137532;27;20019;-72
2023/06/06 04:05:18;;;;;;;5.25;3.30;;;18.90;99.90;;;;;;5137668;27;20022;-72
2023/06/06 04:07:44;;;;;;;5.45;3.95;;;18.90;99.90;;;;;;5137458;27;20023;-72
2023/06/06 04:10:10;;;;;;;9.07;3.58;;;18.90;99.90;;;;;;5137155;27;20038;-72
2023/06/06 04:12:36;;;;;;;8.57;3.97;;;18.90;99.90;;;;;;5137468;27;20098;-72
2023/06/06 04:15:02;;;;;;;6.15;3.30;;;18.90;99.90;;;;;;5137589;27;20073;-72
2023/06/06 04:17:28;;;;;;;5.45;3.92;;;18.90;99.90;;;;;;5137483;27;20080;-72
2023/06/06 04:19:53;;;;;;;4.18;3.53;;;18.90;99.90;;;;;;5137403;27;20444;-72
2023/06/06 04:22:24;;;;;;;6.85;4.07;;;18.90;99.90;;;;;;5137131;27;20049;-72
2023/06/06 04:24:50;;;;;;;5.88;3.60;;;18.90;99.90;;;;;;5137240;27;20072;-72
2023/06/06 04:27:18;;;;;;;4.47;3.90;;;18.90;99.90;;;;;;5137256;27;20019;-72
2023/06/06 04:29:44;;;;;;;10.20;3.80;;;18.90;99.90;;;;;;5137035;27;20031;-72
2023/06/06 04:32:11;;;;;;;6.82;3.78;;;18.90;99.90;;;;;;5137033;27;20513;-72
2023/06/06 04:34:41;;;;;;;5.78;3.90;;;18.90;99.90;;;;;;5136940;27;20035;-72
2023/06/06 04:37:08;;;;;;;4.60;3.88;;;19.00;99.90;;;;;;5137107;27;20040;-71
2023/06/06 04:39:35;;;;;;;9.68;4.15;;;18.90;99.90;;;;;;5136985;27;20367;-71
2023/06/06 04:42:05;;;;;;;5.55;4.22;;;19.00;99.90;;;;;;5131240;27;20016;-72
2023/06/06 04:44:34;;;;;;;5.25;3.65;;;19.00;99.90;;;;;;5116298;28;20031;-73
2023/06/06 04:47:01;;;;;;;4.22;3.83;;;19.00;99.90;;;;;;5116228;28;20497;-72
2023/06/06 04:49:35;;;;;;;6.28;4.18;;;19.00;99.90;;;;;;5116474;28;20032;-72
2023/06/06 04:52:03;;;;;;;6.65;3.90;;;19.00;99.90;;;;;;5116008;28;20027;-72
2023/06/06 04:54:30;;;;;;;4.57;3.75;;;19.00;99.90;;;;;;5116402;28;20023;-72
2023/06/06 04:56:56;;;;;;;6.55;3.67;;;19.00;99.90;;;;;;5115930;28;20024;-72
2023/06/06 04:59:22;;;;;;;5.88;3.70;;;19.00;99.90;;;;;;5115661;28;20047;-72
2023/06/06 05:01:49;;;;;;;4.63;3.50;;;19.10;99.90;;;;;;5115963;28;20495;-72
2023/06/06 05:04:15;;;;;;;8.68;3.30;;;19.00;99.90;;;;;;5115384;28;20069;-72
2023/06/06 05:06:41;;;;;;;5.75;3.45;;;19.00;99.90;;;;;;5115807;28;20081;-72
2023/06/06 05:09:07;;;;;;;7.40;3.10;;;19.10;99.90;;;;;;5115935;28;20035;-71
2023/06/06 05:11:36;;;;;;;5.70;3.28;;;19.10;99.90;;;;;;5115739;28;20024;-72
2023/06/06 05:14:02;;;;;;;3.05;2.80;;;19.10;99.90;;;;;;5115314;28;20114;-72
2023/06/06 05:16:28;;;;;;;5.38;3.10;;;19.10;99.90;;;;;;5097207;28;20027;-72
2023/06/06 05:18:54;;;;;;;5.47;2.92;;;19.10;99.90;;;;;;5115697;28;20018;-72
2023/06/06 05:21:20;;;;;;;5.50;3.25;;;19.10;99.90;;;;;;5115204;28;20031;-72
2023/06/06 05:23:46;;;;;;;4.65;2.95;;;19.10;99.90;;;;;;5115485;28;20004;-72
2023/06/06 05:26:12;;;;;;;3.83;2.97;;;19.20;99.90;;;;;;5115430;28;20028;-72
2023/06/06 05:28:38;;;;;;;4.68;3.05;;;19.10;99.90;;;;;;5115364;28;20361;-72
2023/06/06 05:31:08;;;;;;;4.82;3.38;;;19.20;99.90;;;;;;5115493;28;20027;-72
2023/06/06 05:33:43;;;;;;;5.32;3.42;;;19.20;99.90;;;;;;5115351;28;20027;-72
2023/06/06 05:36:09;;;;;;;4.13;3.28;;;19.20;99.90;;;;;;5115108;28;20177;-72
2023/06/06 05:38:35;;;;;;;8.88;3.65;;;19.20;99.90;;;;;;5114996;28;20045;-72
2023/06/06 05:41:00;;;;;;;5.47;3.17;;;19.30;99.90;;;;;;5114812;28;20058;-72
2023/06/06 05:43:28;;;;;;;3.60;3.30;;;19.30;99.90;;;;;;5114940;28;20028;-72
2023/06/06 05:45:53;;;;;;;4.13;3.38;;;19.30;99.90;;;;;;5114746;28;20027;-73
2023/06/06 05:48:19;;;;;;;6.53;3.50;;;19.30;99.90;;;;;;5114576;28;20501;-72
2023/06/06 05:50:45;;;;;;;4.38;3.13;;;19.40;99.90;;;;;;5114655;28;20103;-72
2023/06/06 05:53:10;;;;;;;3.50;3.17;;;19.40;99.90;;;;;;5114440;28;20030;-73
2023/06/06 05:55:36;;;;;;;3.92;3.47;;;19.40;99.90;;;;;;5114861;28;20024;-73
2023/06/06 05:58:03;;;;;;;3.58;2.80;;;19.40;99.90;;;;;;5114674;28;20065;-72
2023/06/06 06:00:30;;;;;;;3.97;2.63;;;19.50;99.90;;;;;;5114805;28;20098;-72
2023/06/06 06:02:58;;;;;;;3.10;2.80;;;19.50;99.90;;;;;;5114415;28;20080;-72
2023/06/06 06:05:28;;;;;;;6.60;2.70;;;19.50;99.90;;;;;;5114431;28;20023;-73
2023/06/06 06:07:55;;;;;;;5.28;2.80;;;19.60;99.90;;;;;;5114065;28;20049;-73
2023/06/06 06:10:21;;;;;;;3.75;2.90;;;19.60;99.90;;;;;;5114404;28;20035;-73
2023/06/06 06:12:47;;;;;;;7.60;2.58;;;19.60;99.90;;;;;;5114368;28;20494;-73
2023/06/06 06:15:13;;;;;;;3.58;2.42;;;19.60;99.90;;;;;;5113547;28;20027;-73
2023/06/06 06:17:38;;;;;;;4.28;2.58;;;19.70;99.90;;;;;;5114496;28;20023;-73
2023/06/06 06:20:08;;;;;;;4.13;2.50;;;19.70;99.90;;;;;;5114575;28;20400;-73
2023/06/06 06:22:37;;;;;;;4.90;2.63;;;19.70;99.90;;;;;;5112076;28;20115;-73
2023/06/06 06:25:08;;;;;;;9.00;2.53;;;19.70;99.90;;;;;;5128838;27;20020;-73
2023/06/06 06:27:37;;;;;;;3.42;2.70;;;19.70;99.90;;;;;;5134255;27;20023;-72
2023/06/06 06:30:04;;;;;;;2.67;2.40;;;19.70;99.90;;;;;;5133494;27;20035;-73
2023/06/06 06:32:33;;;;;;;6.38;2.85;;;19.70;99.90;;;;;;5133269;27;20023;-73
2023/06/06 06:34:59;;;;;;;2.78;2.55;;;19.70;99.90;;;;;;5129096;27;20046;-72
2023/06/06 06:37:25;;;;;;;4.63;3.03;;;19.80;99.90;;;;;;5129049;27;20041;-72
2023/06/06 06:39:51;;;;;;;3.22;2.80;;;19.80;99.90;;;;;;5113170;28;20032;-73
2023/06/06 06:42:17;;;;;;;4.18;3.08;;;19.80;99.90;;;;;;5113140;28;20019;-74
2023/06/06 06:44:43;;;;;;;4.40;3.28;;;19.80;99.90;;;;;;5113152;28;20494;-73
2023/06/06 06:47:08;;;;;;;3.50;3.05;;;19.80;99.90;;;;;;5113326;28;20020;-74
2023/06/06 06:49:34;;;;;;;5.15;3.03;;;19.70;99.90;;;;;;5113089;28;20035;-74
2023/06/06 06:52:00;;;;;;;5.28;3.00;;;19.70;99.90;;;;;;5112171;28;20022;-74
2023/06/06 06:54:26;;;;;;;3.97;2.83;;;19.70;99.90;;;;;;5113339;28;20099;-74
2023/06/06 06:56:53;;;;;;;4.38;2.67;;;19.70;99.90;;;;;;5113684;28;20047;-73
2023/06/06 06:59:20;;;;;;;5.50;2.92;;;19.80;99.90;;;;;;5113171;28;20034;-74
2023/06/06 07:01:49;;;;;;;3.95;2.60;;;19.80;99.90;;;;;;5113101;28;20387;-74
2023/06/06 07:04:16;;;;;;;4.70;2.15;;;19.80;99.90;;;;;;5131759;27;20114;-73
2023/06/06 07:06:46;;;;;;;7.30;2.58;;;19.80;99.90;;;;;;5132971;27;20099;-73
2023/06/06 07:09:13;;;;;;;2.13;1.85;;;19.80;99.90;;;;;;5132830;27;20425;-73
2023/06/06 07:11:39;;;;;;;3.92;2.20;;;19.80;99.90;;;;;;5133094;27;20030;-73
2023/06/06 07:14:05;;;;;;;5.38;2.45;;;19.80;99.90;;;;;;5133897;27;20083;-73
2023/06/06 07:16:31;;;;;;;4.05;2.72;;;19.80;99.90;;;;;;5133949;27;20019;-73
2023/06/06 07:18:57;;;;;;;2.55;2.00;;;19.80;99.90;;;;;;5133779;27;20030;-72
2023/06/06 07:21:25;;;;;;;4.72;2.20;;;19.80;99.90;;;;;;5133490;27;20015;-73
2023/06/06 07:23:53;;;;;;;2.78;1.98;;;19.80;99.90;;;;;;5133662;27;20023;-73
2023/06/06 07:26:19;;;;;;;8.45;2.10;;;19.80;99.90;;;;;;5133223;27;20023;-73
2023/06/06 07:28:46;;;;;;;4.60;1.52;;;19.80;99.90;;;;;;5132821;27;20038;-73
2023/06/06 07:31:14;;;;;;;4.72;2.10;;;19.80;99.90;;;;;;5115201;28;20383;-73
2023/06/06 07:33:40;;;;;;;2.83;1.70;;;19.80;99.90;;;;;;5136479;22;20060;-73
2023/06/06 07:36:07;;;;;;;3.67;1.85;;;19.80;99.90;;;;;;5092761;28;20028;-73
2023/06/06 07:38:33;;;;;;;2.63;1.70;;;19.80;99.90;;;;;;5092078;28;20102;-75
2023/06/06 07:40:59;;;;;;;7.30;2.20;;;19.80;99.90;;;;;;5092280;28;20024;-73
2023/06/06 07:43:25;;;;;;;7.22;2.58;;;19.80;99.90;;;;;;5092612;28;20162;-74
2023/06/06 07:45:50;;;;;;;7.05;1.70;;;19.80;99.90;;;;;;5092094;28;20024;-72
2023/06/06 07:48:16;;;;;;;2.75;1.58;;;19.90;99.90;;;;;;5092418;28;20050;-73
2023/06/06 07:50:42;;;;;;;3.47;1.55;;;19.80;99.90;;;;;;5092609;28;20431;-73
2023/06/06 07:53:10;;;;;;;5.82;2.10;;;19.80;99.90;;;;;;5092638;28;20054;-74
2023/06/06 07:55:37;;;;;;;3.45;1.85;;;19.80;99.90;;;;;;5092443;28;20024;-73
2023/06/06 07:58:05;;;;;;;5.60;2.08;;;19.80;99.90;;;;;;5092810;28;20113;-72
2023/06/06 08:00:31;;;;;;;2.80;1.70;;;19.90;99.90;;;;;;5092778;28;20024;-72
2023/06/06 08:02:56;;;;;;;6.75;2.08;;;19.80;99.90;;;;;;5092597;28;20020;-72
2023/06/06 08:05:22;;;;;;;3.53;2.00;;;19.90;99.90;;;;;;5092530;28;20417;-72
2023/06/06 08:07:48;;;;;;;2.88;1.80;;;19.90;99.90;;;;;;5091214;28;20027;-73
2023/06/06 08:10:14;;;;;;;6.47;2.55;;;19.90;99.90;;;;;;5092573;28;20056;-73
2023/06/06 08:12:40;;;;;;;5.10;1.88;;;19.90;99.90;;;;;;5074486;28;20105;-72
2023/06/06 08:15:06;;;;;;;3.95;2.03;;;19.90;99.90;;;;;;5092572;28;20386;-73
2023/06/06 08:17:32;;;;;;;4.43;1.60;;;19.90;99.90;;;;;;5092372;28;20031;-72
2023/06/06 08:19:58;;;;;;;4.05;1.55;;;19.90;99.90;;;;;;5092453;28;20024;-72
2023/06/06 08:22:24;;;;;;;3.58;1.63;;;19.90;99.90;;;;;;5092517;28;20031;-71
2023/06/06 08:24:50;;;;;;;2.85;1.77;;;20.00;99.90;;;;;;5092182;28;20531;-71
2023/06/06 08:27:17;;;;;;;2.58;1.40;;;20.00;99.90;;;;;;5092334;28;20051;-73
2023/06/06 08:29:42;;;;;;;5.60;1.92;;;20.10;99.90;;;;;;5092271;28;20036;-72
2023/06/06 08:32:08;;;;;;;4.25;2.00;;;20.10;99.90;;;;;;5092450;28;20093;-72
2023/06/06 08:34:34;;;;;;;2.53;1.90;;;20.10;99.90;;;;;;5092091;28;20510;-73
2023/06/06 08:37:00;;;;;;;5.40;1.95;;;20.10;99.90;;;;;;5092473;28;20475;-73
2023/06/06 08:39:26;;;;;;;2.42;1.65;;;20.20;99.90;;;;;;5095440;28;20084;-72
2023/06/06 08:41:53;;;;;;;3.65;1.95;;;20.20;99.90;;;;;;5095984;28;20027;-72
2023/06/06 08:44:23;;;;;;;5.22;2.10;;;20.20;99.90;;;;;;5096214;28;20063;-73
2023/06/06 08:46:52;;;;;;;5.38;2.58;;;20.20;99.90;;;;;;5095888;28;20497;-72
2023/06/06 08:49:19;;;;;;;3.80;2.95;;;20.20;99.90;;;;;;5095772;28;20040;-72
2023/06/06 08:51:48;;;;;;;3.78;2.80;;;20.30;99.90;;;;;;5096244;28;20069;-72
2023/06/06 08:54:15;;;;;;;6.10;3.00;;;20.20;99.90;;;;;;5095891;28;20031;-72
2023/06/06 08:56:44;;;;;;;5.15;3.10;;;20.30;99.90;;;;;;5077559;28;20143;-72
2023/06/06 08:59:10;;;;;;;12.20;6.05;;;20.30;99.90;;;;;;5095680;28;20443;-72
2023/06/06 09:01:38;;;;;;;6.63;6.03;;;20.30;99.90;;;;;;5095583;28;20021;-73
2023/06/06 09:04:06;;;;;;;5.20;3.85;;;20.30;99.90;;;;;;5095326;28;20069;-73
2023/06/06 09:06:34;;;;;;;5.75;3.30;;;20.30;99.90;;;;;;5095717;28;20464;-72
2023/06/06 09:09:01;;;;;;;8.80;3.53;;;20.30;99.90;;;;;;5095272;28;20111;-72
2023/06/06 09:11:27;;;;;;;5.78;2.97;;;20.30;99.90;;;;;;5095411;28;20490;-73
2023/06/06 09:13:52;;;;;;;5.22;3.13;;;20.40;99.90;;;;;;5095385;28;20055;-72
2023/06/06 09:16:18;;;;;;;4.97;3.35;;;20.40;99.90;;;;;;5095391;28;20460;-72
2023/06/06 09:18:48;;;;;;;3.47;2.78;;;20.40;99.90;;;;;;5095288;28;20067;-73
2023/06/06 09:21:13;;;;;;;4.28;3.28;;;20.50;99.90;;;;;;5095223;28;20103;-72
2023/06/06 09:23:39;;;;;;;4.80;3.40;;;20.50;99.90;;;;;;5095158;28;20506;-72
2023/06/06 09:26:17;;;;;;;6.43;3.00;;;20.50;99.90;;;;;;5095240;28;20024;-72
2023/06/06 09:28:44;;;;;;;7.35;2.80;;;20.50;99.90;;;;;;5095039;28;20039;-72
2023/06/06 09:31:32;;;;;;;4.00;2.63;;;20.50;99.90;;;;;;5095037;28;20070;-72
2023/06/06 09:33:59;;;;;;;2.65;2.38;;;20.50;99.90;;;;;;5095088;28;20039;-72
2023/06/06 09:36:30;;;;;;;10.52;2.95;;;20.50;99.90;;;;;;5095054;28;20073;-72
2023/06/06 09:39:08;;;;;;;5.18;3.40;;;20.50;99.90;;;;;;5094436;28;20495;-72
2023/06/06 09:41:47;;;;;;;4.65;3.25;;;20.40;99.90;;;;;;5094885;28;20047;-72
2023/06/06 09:44:18;;;;;;;3.15;2.35;;;20.40;99.90;;;;;;5095091;28;20032;-72
2023/06/06 09:46:44;;;;;;;5.40;2.80;;;20.40;99.90;;;;;;5094788;28;20032;-73
2023/06/06 09:49:12;;;;;;;4.40;3.03;;;20.40;99.90;;;;;;5094514;28;20031;-72
2023/06/06 09:51:42;;;;;;;7.22;3.30;;;20.40;99.90;;;;;;5094615;28;20032;-72
2023/06/06 09:54:11;;;;;;;4.40;3.50;;;20.50;99.90;;;;;;5094522;28;20027;-73
2023/06/06 09:56:41;;;;;;;5.28;3.22;;;20.50;99.90;;;;;;5094356;28;20403;-72
2023/06/06 09:59:08;;;;;;;3.28;2.60;;;20.60;99.90;;;;;;5094342;28;20024;-72
2023/06/06 10:01:37;;;;;;;7.25;3.20;;;20.60;99.90;;;;;;5094433;28;20027;-72
2023/06/06 10:04:04;;;;;;;5.60;3.33;;;20.70;99.90;;;;;;5094151;28;20024;-73
2023/06/06 10:06:33;;;;;;;7.07;4.18;;;20.70;99.90;;;;;;5094132;28;20074;-73
2023/06/06 10:09:05;;;;;;;6.03;3.70;;;20.80;99.90;;;;;;5093342;28;20471;-72
2023/06/06 10:11:36;;;;;;;5.10;3.63;;;20.90;99.90;;;;;;5093828;28;20062;-72
2023/06/06 10:14:03;;;;;;;8.38;4.10;;;21.00;99.90;;;;;;5094360;28;20028;-72
2023/06/06 10:16:30;;;;;;;4.95;4.03;;;21.10;99.90;;;;;;5093734;28;20365;-72
2023/06/06 10:18:57;;;;;;;7.82;4.30;;;21.20;99.90;;;;;;5093336;28;20523;-72
2023/06/06 10:21:24;;;;;;;5.82;4.85;;;21.30;99.90;;;;;;5093590;28;20099;-73
2023/06/06 10:23:50;;;;;;;6.55;5.03;;;21.30;99.90;;;;;;5093080;28;20030;-72
2023/06/06 10:26:26;;;;;;;7.70;4.97;;;21.30;99.90;;;;;;5094159;28;20026;-72
2023/06/06 10:29:11;;;;;;;4.65;4.13;;;21.40;99.90;;;;;;5094005;28;20480;-72
2023/06/06 10:31:50;;;;;;;4.75;3.70;;;21.40;99.90;;;;;;5093894;28;20383;-72
2023/06/06 10:34:21;;;;;;;4.07;3.13;;;21.40;99.90;;;;;;5092994;28;20437;-72
2023/06/06 10:36:47;;;;;;;4.32;2.80;;;21.40;99.90;;;;;;5093589;28;20468;-72
2023/06/06 10:39:23;;;;;;;4.30;2.88;;;21.30;99.90;;;;;;5093489;28;20031;-72
2023/06/06 10:42:07;;;;;;;5.28;3.20;;;21.30;99.90;;;;;;5093744;28;20028;-71
2023/06/06 10:44:35;;;;;;;8.15;3.40;;;21.30;99.90;;;;;;5093542;28;20032;-72
2023/06/06 10:47:20;;;;;;;4.43;3.20;;;21.30;99.90;;;;;;5075293;28;20036;-72
2023/06/06 10:50:13;;;;;;;4.22;3.40;;;21.30;99.90;;;;;;5093225;28;20089;-72
2023/06/06 10:52:50;;;;;;;4.07;2.95;;;21.30;99.90;;;;;;5093116;28;20024;-71
2023/06/06 10:55:22;;;;;;;5.10;2.83;;;21.30;99.90;;;;;;5093043;28;20482;-73
2023/06/06 10:58:03;;;;;;;3.45;2.70;;;21.30;99.90;;;;;;5075495;28;20407;-72
2023/06/06 11:00:31;;;;;;;5.35;3.08;;;21.30;99.90;;;;;;5092866;28;20028;-72
2023/06/06 11:02:58;;;;;;;4.10;3.13;;;21.40;99.90;;;;;;5092735;28;20067;-71
2023/06/06 11:05:24;;;;;;;5.63;3.40;;;21.40;99.90;;;;;;5092757;28;20035;-72
2023/06/06 11:07:55;;;;;;;4.72;3.08;;;21.40;99.90;;;;;;5075067;28;20016;-72
2023/06/06 11:10:24;;;;;;;3.47;3.17;;;21.40;99.90;;;;;;5092658;28;20472;-73
2023/06/06 11:12:50;;;;;;;4.95;3.35;;;21.40;99.90;;;;;;5092941;28;20016;-72
2023/06/06 11:15:32;;;;;;;4.50;3.53;;;21.50;99.90;;;;;;5092751;28;20032;-73
2023/06/06 11:18:05;;;;;;;5.18;3.30;;;21.50;99.90;;;;;;5092953;28;20376;-73
2023/06/06 11:20:40;;;;;;;3.45;3.15;;;21.50;99.90;;;;;;5074901;28;20020;-71
2023/06/06 11:23:10;;;;;;;7.63;3.60;;;21.50;99.90;;;;;;5091199;28;20024;-69
2023/06/06 11:25:37;;;;;;;4.68;4.18;;;21.50;99.90;;;;;;5092522;28;20035;-69
2023/06/06 11:28:04;;;;;;;4.97;4.25;;;21.50;99.90;;;;;;5092385;28;20024;-71
2023/06/06 11:30:31;;;;;;;5.28;4.50;;;21.50;99.90;;;;;;5092821;28;20027;-71
2023/06/06 11:33:01;;;;;;;4.35;3.95;;;21.50;99.90;;;;;;5092919;28;20093;-71
2023/06/06 11:35:32;;;;;;;4.65;3.45;;;21.50;99.90;;;;;;5092781;28;20055;-71
2023/06/06 11:37:58;;;;;;;6.43;4.00;;;21.50;99.90;;;;;;5092955;28;20035;-72
2023/06/06 11:40:28;;;;;;;6.93;4.05;;;21.50;99.90;;;;;;5093021;28;20050;-71
2023/06/06 11:42:54;;;;;;;5.63;3.75;;;21.50;99.90;;;;;;5092661;28;20024;-72
2023/06/06 11:45:20;;;;;;;6.15;4.00;;;21.50;99.70;;;;;;5092902;28;20097;-71
2023/06/06 11:47:46;;;;;;;9.32;4.88;;;21.50;99.50;;;;;;5092483;28;20043;-72
2023/06/06 11:50:13;;;;;;;4.70;3.70;;;21.50;99.20;;;;;;5092445;28;20064;-71
2023/06/06 11:52:47;;;;;;;5.82;3.70;;;21.50;99.00;;;;;;5090449;28;20028;-72
2023/06/06 11:55:13;;;;;;;4.85;3.67;;;21.50;98.90;;;;;;5090032;28;20056;-73
2023/06/06 11:57:39;;;;;;;7.45;4.20;;;21.50;98.90;;;;;;5090134;28;20051;-72
2023/06/06 12:00:19;;;;;;;6.05;4.18;;;21.50;98.90;;;;;;5092394;28;20020;-72
2023/06/06 12:02:52;;;;;;;6.82;4.43;;;21.50;98.70;;;;;;5092460;28;20085;-75
2023/06/06 12:05:22;;;;;;;7.82;5.13;;;21.50;98.70;;;;;;5091515;28;20025;-75
2023/06/06 12:07:54;;;;;;;7.07;4.15;;;21.60;98.80;;;;;;5092107;28;20031;-76
2023/06/06 12:10:26;;;;;;;4.70;4.00;;;21.70;98.90;;;;;;5092660;28;20038;-75
2023/06/06 12:12:52;;;;;;;5.75;3.90;;;21.70;98.80;;;;;;5093091;28;20089;-75
2023/06/06 12:15:17;;;;;;;5.40;3.90;;;21.80;98.70;;;;;;5096143;28;20059;-77
2023/06/06 12:17:43;;;;;;;4.57;4.07;;;21.80;98.60;;;;;;5096303;28;20097;-75
2023/06/06 12:20:10;;;;;;;8.52;4.28;;;21.90;98.50;;;;;;5096143;28;20428;-75
2023/06/06 12:22:36;;;;;;;6.45;4.55;;;22.00;98.40;;;;;;5095528;28;20032;-76
2023/06/06 12:25:03;;;;;;;8.48;4.60;;;22.00;98.50;;;;;;5096222;28;20578;-74
2023/06/06 12:27:33;;;;;;;7.30;4.60;;;22.10;98.60;;;;;;5096023;28;20111;-76
2023/06/06 12:30:00;;;;;;;5.90;4.00;;;22.30;98.60;;;;;;5095574;28;20071;-75
2023/06/06 12:32:29;;;;;;;8.27;4.35;;;22.40;98.50;;;;;;5095796;28;20047;-75
2023/06/06 12:35:02;;;;;;;8.40;4.40;;;22.50;98.20;;;;;;5095584;28;20127;-76
2023/06/06 12:37:41;;;;;;;4.25;3.28;;;22.70;97.90;;;;;;5095460;28;20069;-76
2023/06/06 12:40:22;;;;;;;4.90;3.80;;;22.80;97.60;;;;;;5077739;28;20028;-75
2023/06/06 12:42:52;;;;;;;5.17;3.80;;;22.90;97.50;;;;;;5093356;28;20043;-76
2023/06/06 12:45:19;;;;;;;4.35;3.50;;;23.10;97.70;;;;;;5093018;28;20668;-76
2023/06/06 12:47:48;;;;;;;5.60;3.40;;;23.20;97.20;;;;;;5094657;28;20028;-75
2023/06/06 12:50:13;;;;;;;5.25;3.72;;;23.20;96.90;;;;;;5095748;28;20060;-75